Ana Sayfa
METAR-TAF:

METAR-TAF

Havaalanları :

Abilene, Teksas, Amerika Birleşik Devletleri

Enlem: 32-24-37N, Boylam: 099-40-54W, yükseklik: 545 m

Güncel hava durumu gözlemi

Rapor saat 10:52 UTC de 1 saat ve 10 dakika önce yapıldı.
Rüzgar güneydan 11 kt
Sıcaklık 25°C
Nem 79%
Basınç 1012 hPa
Görüş mesafesi: 16.1 km
Açık gökyüzü

METAR: KABI 161052Z 17011KT 10SM CLR 25/21 A2988 RMK AO2 LTG DSNT W SLP089 T02500206 $

Saat: 07:02 (12:02 UTC)

Tahmin

Rapor saat 11:20 UTC de 42 dakika önce yapıldı.
Ayın 16'si saat 12 UTC'den ayın 17'si saat 12 UTC'ye kadar geçerli Tahmin
Rüzgar güneydan 14 kt ve 22 kt'a kadar ani rüzgarlar
Görüş mesafesi: 10 km
25000 ft yükseklikte az bulutlu
Ayın 17'si saat 0300 UTC'den
Rüzgar güneydoğudan 13 kt
Görüş mesafesi: 10 km
Açık gökyüzü

TAF: KABI 161120Z 1612/1712 17014G22KT P6SM FEW250 FM170300 14013KT P6SM SKC

4.000'den fazla havaalanı için hava durumu gözlemleri ve tahminleri (METAR ve TAF raporları).

Kullanılabilir istasyonlar harita üzerinde sarı ve kırmızı noktalarla gösterilir.

İstasyonun adını görmek için fareyi noktanın üzerinde gezdirin.

Sonrasında hava gözlem ve tahminlerini görmek için tıklayın.

Haritayı değiştirmek için: yaklaştırmak için siyah artı işaretli yeşil düğmeye ve uzaklaştırmak için de eksi işaretli düğmeye hızla tıklayın; bitişik haritalar için yeşil okları kullanın.


METAR-TAF: